Time;durP1;ratioP1;P1;durP2;ratioP2;P2;SDS_P1;SDS_P2;PMS_P1;PMS_P2;Temp;Humidity;BMP_temperature;BMP_pressure;BME280_temperature;BME280_humidity;BME280_pressure;Samples;Min_cycle;Max_cycle;Signal;HPM_P1;HPM_P2
2023/10/26 00:02:04;;;;;;;6.27;6.17;;;10.70;99.90;;;;;;5017593;28;20854;-70
2023/10/26 00:04:31;;;;;;;8.53;8.43;;;10.70;99.90;;;;;;5031553;28;20489;-69
2023/10/26 00:07:00;;;;;;;8.43;8.33;;;10.70;99.90;;;;;;5014041;28;20557;-73
2023/10/26 00:09:27;;;;;;;7.80;7.70;;;10.90;99.90;;;;;;5008725;28;21058;-72
2023/10/26 00:11:55;;;;;;;9.30;9.10;;;10.80;99.90;;;;;;5021915;28;20516;-71
2023/10/26 00:14:22;;;;;;;8.03;7.93;;;10.80;99.90;;;;;;5026287;28;20453;-72
2023/10/26 00:16:49;;;;;;;8.50;8.40;;;10.80;99.90;;;;;;5024095;28;20457;-73
2023/10/26 00:19:16;;;;;;;8.00;7.90;;;10.80;99.90;;;;;;5020865;28;20468;-71
2023/10/26 00:21:42;;;;;;;7.57;7.47;;;10.80;99.90;;;;;;5019372;28;20465;-70
2023/10/26 00:24:09;;;;;;;8.10;8.00;;;10.90;99.90;;;;;;5026314;28;20460;-71
2023/10/26 00:26:36;;;;;;;7.80;7.70;;;10.90;99.90;;;;;;5018968;28;20987;-71
2023/10/26 00:29:04;;;;;;;7.60;7.50;;;10.90;99.90;;;;;;5012642;28;20454;-70
2023/10/26 00:31:31;;;;;;;7.43;7.33;;;11.00;99.90;;;;;;5014278;28;20485;-70
2023/10/26 00:33:58;;;;;;;7.63;7.53;;;11.00;99.90;;;;;;5018887;28;20505;-71
2023/10/26 00:36:24;;;;;;;7.53;7.43;;;10.90;99.90;;;;;;5026034;28;20459;-70
2023/10/26 00:38:51;;;;;;;7.60;7.50;;;10.90;99.90;;;;;;5021599;28;20470;-71
2023/10/26 00:41:18;;;;;;;8.17;8.07;;;10.90;99.90;;;;;;5019654;28;20827;-71
2023/10/26 00:43:47;;;;;;;8.63;8.53;;;10.90;99.90;;;;;;5018026;28;20959;-73
2023/10/26 00:46:15;;;;;;;9.37;9.17;;;10.90;99.90;;;;;;5016504;28;20560;-71
2023/10/26 00:48:43;;;;;;;9.60;9.40;;;10.90;99.90;;;;;;5025403;28;20457;-72
2023/10/26 00:51:09;;;;;;;8.40;8.30;;;10.90;99.90;;;;;;5018167;28;20486;-72
2023/10/26 00:53:40;;;;;;;9.40;9.20;;;10.90;99.90;;;;;;5024321;28;20527;-71
2023/10/26 00:56:06;;;;;;;8.30;8.20;;;10.90;99.90;;;;;;5022008;28;21063;-73
2023/10/26 00:58:34;;;;;;;8.70;8.60;;;10.80;99.90;;;;;;5020520;28;20462;-71
2023/10/26 01:01:02;;;;;;;8.40;8.30;;;10.90;99.90;;;;;;5023731;28;20449;-72
2023/10/26 01:03:32;;;;;;;8.47;8.37;;;10.90;99.90;;;;;;5014806;28;20979;-73
2023/10/26 01:05:59;;;;;;;7.87;7.77;;;10.90;99.90;;;;;;5022666;28;20469;-70
2023/10/26 01:08:26;;;;;;;8.00;7.90;;;10.80;99.90;;;;;;5017850;28;20962;-71
2023/10/26 01:10:53;;;;;;;7.87;7.77;;;10.80;99.90;;;;;;5019888;28;20497;-71
2023/10/26 01:13:20;;;;;;;7.80;7.70;;;10.80;99.90;;;;;;5024581;28;20461;-72
2023/10/26 01:15:47;;;;;;;7.60;7.50;;;10.80;99.90;;;;;;5024235;28;20882;-69
2023/10/26 01:18:16;;;;;;;8.27;8.17;;;10.80;99.90;;;;;;5019906;28;20947;-72
2023/10/26 01:20:44;;;;;;;6.87;6.77;;;10.80;99.90;;;;;;5028748;27;20508;-71
2023/10/26 01:23:12;;;;;;;7.03;6.93;;;10.70;99.90;;;;;;5014861;27;20461;-71
2023/10/26 01:25:39;;;;;;;6.97;6.87;;;10.80;99.90;;;;;;5021044;27;20895;-70
2023/10/26 01:28:07;;;;;;;7.50;7.40;;;10.70;99.90;;;;;;5021651;27;20549;-69
2023/10/26 01:30:35;;;;;;;7.03;6.93;;;10.60;99.90;;;;;;5017720;27;20552;-70
2023/10/26 01:33:01;;;;;;;6.80;6.70;;;10.60;99.90;;;;;;5023934;28;20454;-71
2023/10/26 01:35:35;;;;;;;6.73;6.63;;;10.50;99.90;;;;;;5020293;28;20477;-71
2023/10/26 01:38:02;;;;;;;7.03;6.93;;;10.50;99.90;;;;;;5016530;27;20461;-71
2023/10/26 01:40:31;;;;;;;7.20;7.10;;;10.50;99.90;;;;;;5019331;28;20564;-72
2023/10/26 01:42:57;;;;;;;6.97;6.87;;;10.60;99.90;;;;;;5023675;27;20815;-70
2023/10/26 01:45:24;;;;;;;6.73;6.63;;;10.50;99.90;;;;;;5026570;27;20892;-70
2023/10/26 01:47:51;;;;;;;7.10;7.00;;;10.50;99.90;;;;;;5022109;27;20549;-70
2023/10/26 01:50:18;;;;;;;7.37;7.27;;;10.50;99.90;;;;;;5025800;27;20526;-72
2023/10/26 01:52:45;;;;;;;7.00;6.90;;;10.60;99.90;;;;;;5028238;27;20550;-70
2023/10/26 01:55:12;;;;;;;7.03;6.93;;;10.50;99.90;;;;;;5019952;27;20903;-72
2023/10/26 01:57:40;;;;;;;7.77;7.67;;;10.50;99.90;;;;;;5024585;27;20815;-71
2023/10/26 02:00:09;;;;;;;6.93;6.83;;;10.50;99.90;;;;;;5023531;27;20465;-71
2023/10/26 02:02:36;;;;;;;7.63;7.53;;;10.50;99.90;;;;;;5024695;27;20568;-71
2023/10/26 02:05:03;;;;;;;7.17;7.07;;;10.50;99.90;;;;;;5019073;27;20523;-70
2023/10/26 02:07:30;;;;;;;8.10;8.00;;;10.50;99.90;;;;;;5016543;27;20470;-72
2023/10/26 02:09:57;;;;;;;7.57;7.47;;;10.50;99.90;;;;;;5020811;27;20473;-70
2023/10/26 02:12:25;;;;;;;7.60;7.50;;;10.50;99.90;;;;;;5028029;28;20486;-70
2023/10/26 02:14:53;;;;;;;7.90;7.80;;;10.40;99.90;;;;;;5023154;27;20469;-70
2023/10/26 02:17:20;;;;;;;8.13;8.03;;;10.50;99.90;;;;;;5028277;27;20461;-70
2023/10/26 02:19:47;;;;;;;7.00;6.90;;;10.40;99.90;;;;;;5026377;28;20526;-71
2023/10/26 02:22:14;;;;;;;6.80;6.70;;;10.30;99.90;;;;;;5017829;27;20524;-71
2023/10/26 02:24:41;;;;;;;7.70;7.60;;;10.30;99.90;;;;;;5017517;27;20946;-71
2023/10/26 02:27:08;;;;;;;7.60;7.50;;;10.20;99.90;;;;;;5026621;27;20453;-71
2023/10/26 02:29:35;;;;;;;7.77;7.67;;;10.10;99.90;;;;;;5027459;27;20469;-71
2023/10/26 02:32:04;;;;;;;6.17;6.07;;;10.10;99.90;;;;;;5023229;27;20883;-71
2023/10/26 02:34:31;;;;;;;7.10;7.00;;;10.00;99.90;;;;;;5027996;27;20453;-72
2023/10/26 02:36:59;;;;;;;8.70;8.60;;;10.00;99.90;;;;;;5027009;27;20457;-71
2023/10/26 02:39:27;;;;;;;8.00;7.90;;;10.10;99.90;;;;;;5018186;27;20465;-71
2023/10/26 02:41:54;;;;;;;7.27;7.17;;;10.10;99.90;;;;;;5019860;27;20479;-71
2023/10/26 02:44:20;;;;;;;8.10;8.00;;;10.10;99.90;;;;;;5018667;28;20473;-70
2023/10/26 02:46:47;;;;;;;7.97;7.87;;;10.10;99.90;;;;;;5024762;28;20469;-71
2023/10/26 02:49:15;;;;;;;8.73;8.63;;;10.10;99.90;;;;;;5019469;27;20481;-70
2023/10/26 02:51:42;;;;;;;7.97;7.87;;;10.20;99.90;;;;;;5023573;27;20478;-71
2023/10/26 02:54:10;;;;;;;8.70;8.60;;;10.10;99.90;;;;;;5017231;28;20484;-72
2023/10/26 02:56:38;;;;;;;8.00;7.90;;;10.20;99.90;;;;;;5025057;27;20871;-71
2023/10/26 02:59:05;;;;;;;8.73;8.63;;;10.20;99.90;;;;;;5020549;27;20465;-71
2023/10/26 03:01:34;;;;;;;8.10;8.00;;;10.20;99.90;;;;;;5019758;27;20758;-71
2023/10/26 03:04:01;;;;;;;8.10;8.00;;;10.20;99.90;;;;;;5023009;27;20551;-72
2023/10/26 03:06:29;;;;;;;8.40;8.30;;;10.30;99.90;;;;;;5020177;28;20461;-70
2023/10/26 03:08:56;;;;;;;8.83;8.73;;;10.30;99.90;;;;;;5023763;27;20457;-72
2023/10/26 03:11:23;;;;;;;7.70;7.60;;;10.30;99.90;;;;;;5018253;28;20572;-73
2023/10/26 03:13:50;;;;;;;8.40;8.30;;;10.20;99.90;;;;;;5025557;27;20481;-71
2023/10/26 03:16:17;;;;;;;8.60;8.50;;;10.20;99.90;;;;;;5027388;28;20461;-71
2023/10/26 03:18:44;;;;;;;8.27;8.17;;;10.20;99.90;;;;;;5023001;27;20814;-72
2023/10/26 03:21:12;;;;;;;7.53;7.43;;;10.20;99.90;;;;;;5026527;27;20541;-72
2023/10/26 03:23:40;;;;;;;7.83;7.73;;;10.10;99.90;;;;;;5018021;28;21039;-72
2023/10/26 03:26:10;;;;;;;7.87;7.77;;;10.10;99.90;;;;;;5020430;28;20457;-72
2023/10/26 03:28:37;;;;;;;8.03;7.93;;;10.10;99.90;;;;;;5022855;27;20468;-72
2023/10/26 03:31:10;;;;;;;8.20;8.10;;;10.10;99.90;;;;;;5013291;28;20522;-72
2023/10/26 03:33:37;;;;;;;8.70;8.60;;;10.00;99.90;;;;;;5025430;27;20461;-72
2023/10/26 03:36:05;;;;;;;7.63;7.53;;;10.00;99.90;;;;;;5016809;27;21066;-71
2023/10/26 03:38:32;;;;;;;8.60;8.50;;;9.90;99.90;;;;;;5026920;28;20465;-71
2023/10/26 03:41:01;;;;;;;8.80;8.70;;;9.80;99.90;;;;;;5026511;27;20480;-73
2023/10/26 03:43:28;;;;;;;9.50;9.30;;;9.70;99.90;;;;;;5019065;28;20474;-72
2023/10/26 03:45:55;;;;;;;9.37;9.17;;;9.70;99.90;;;;;;5016639;28;20489;-71
2023/10/26 03:48:22;;;;;;;9.07;8.90;;;9.70;99.90;;;;;;5016679;27;20812;-70
2023/10/26 03:50:49;;;;;;;9.50;9.30;;;9.60;99.90;;;;;;5020631;28;20458;-69
2023/10/26 03:53:16;;;;;;;10.63;10.43;;;9.50;99.90;;;;;;5026470;28;20493;-71
2023/10/26 03:55:43;;;;;;;10.87;10.67;;;9.50;99.90;;;;;;5026942;27;20534;-71
2023/10/26 03:58:12;;;;;;;11.50;11.20;;;9.50;99.90;;;;;;5015886;27;20610;-68
2023/10/26 04:00:39;;;;;;;12.00;11.70;;;9.50;99.90;;;;;;5020605;28;20458;-71
2023/10/26 04:03:06;;;;;;;11.73;11.43;;;9.50;99.90;;;;;;5012988;27;20462;-71
2023/10/26 04:05:33;;;;;;;13.60;13.20;;;9.40;99.90;;;;;;5031950;28;20465;-70
2023/10/26 04:08:02;;;;;;;13.13;12.73;;;9.40;99.90;;;;;;5024820;28;20556;-70
2023/10/26 04:10:28;;;;;;;12.47;12.17;;;9.40;99.90;;;;;;5023036;28;20462;-71
2023/10/26 04:12:55;;;;;;;13.50;13.10;;;9.30;99.90;;;;;;5020324;28;20493;-70
2023/10/26 04:15:23;;;;;;;12.77;12.47;;;9.30;99.90;;;;;;5026374;28;20486;-70
2023/10/26 04:17:51;;;;;;;14.00;13.60;;;9.20;99.90;;;;;;5027132;28;20453;-72
2023/10/26 04:20:20;;;;;;;13.67;13.27;;;9.20;99.90;;;;;;5015332;28;20487;-70
2023/10/26 04:22:47;;;;;;;13.23;12.83;;;9.30;99.90;;;;;;5023066;28;20552;-70
2023/10/26 04:25:14;;;;;;;13.33;12.93;;;9.30;99.90;;;;;;5026757;28;20461;-71
2023/10/26 04:27:41;;;;;;;12.50;12.20;;;9.30;99.90;;;;;;5025824;28;20458;-71
2023/10/26 04:30:09;;;;;;;13.60;13.20;;;9.30;99.90;;;;;;5019571;28;20468;-70
2023/10/26 04:32:38;;;;;;;12.60;12.30;;;9.20;99.90;;;;;;5026084;28;20534;-69
2023/10/26 04:35:06;;;;;;;13.20;12.80;;;9.20;99.90;;;;;;5012982;28;20463;-70
2023/10/26 04:37:33;;;;;;;12.97;12.57;;;9.20;99.90;;;;;;5013306;28;21094;-71
2023/10/26 04:39:59;;;;;;;14.17;13.70;;;9.10;99.90;;;;;;5018439;28;20847;-71
2023/10/26 04:42:26;;;;;;;14.90;14.40;;;9.10;99.90;;;;;;5025893;28;21013;-71
2023/10/26 04:44:53;;;;;;;13.97;13.57;;;9.10;99.90;;;;;;5018115;28;20843;-70
2023/10/26 04:47:20;;;;;;;13.40;13.00;;;9.10;99.90;;;;;;5021748;28;20462;-72
2023/10/26 04:49:48;;;;;;;14.60;14.10;;;9.10;99.90;;;;;;5020275;28;20944;-70
2023/10/26 04:52:18;;;;;;;14.87;14.37;;;9.10;99.90;;;;;;5025533;28;20874;-71
2023/10/26 04:54:45;;;;;;;14.63;14.13;;;9.10;99.90;;;;;;5017864;27;20469;-70
2023/10/26 04:57:14;;;;;;;14.13;13.73;;;9.20;99.90;;;;;;5020776;27;20939;-72
2023/10/26 04:59:41;;;;;;;15.30;14.80;;;9.20;99.90;;;;;;5018352;27;20461;-70
2023/10/26 05:02:08;;;;;;;14.90;14.40;;;9.30;99.90;;;;;;5019308;27;21034;-71
2023/10/26 05:04:35;;;;;;;14.17;13.77;;;9.30;99.90;;;;;;5023367;27;20852;-70
2023/10/26 05:07:03;;;;;;;14.30;13.90;;;9.30;99.90;;;;;;5011474;27;20956;-70
2023/10/26 05:09:30;;;;;;;13.67;13.27;;;9.20;99.90;;;;;;5036600;27;20457;-70
2023/10/26 05:11:57;;;;;;;11.93;11.63;;;9.20;99.90;;;;;;5022785;27;20544;-71
2023/10/26 05:14:24;;;;;;;13.27;12.87;;;9.10;99.90;;;;;;5021738;27;20584;-71
2023/10/26 05:16:51;;;;;;;13.53;13.13;;;9.00;99.90;;;;;;5014463;27;20463;-71
2023/10/26 05:19:18;;;;;;;13.43;13.03;;;9.00;99.90;;;;;;5017701;27;21080;-70
2023/10/26 05:21:45;;;;;;;12.50;12.20;;;8.90;99.90;;;;;;5014038;27;20470;-70
2023/10/26 05:24:13;;;;;;;13.40;13.00;;;8.80;99.90;;;;;;5022726;27;20502;-70
2023/10/26 05:26:40;;;;;;;13.10;12.70;;;8.70;99.90;;;;;;5026377;27;20797;-69
2023/10/26 05:29:07;;;;;;;12.80;12.50;;;8.70;99.90;;;;;;5019702;27;20457;-70
2023/10/26 05:31:33;;;;;;;13.07;12.67;;;8.70;99.90;;;;;;5017263;27;20473;-71
2023/10/26 05:34:00;;;;;;;13.10;12.70;;;8.60;99.90;;;;;;5015680;27;20809;-70
2023/10/26 05:36:28;;;;;;;11.97;11.67;;;8.60;99.90;;;;;;5018489;27;20473;-69
2023/10/26 05:38:55;;;;;;;11.80;11.50;;;8.60;99.90;;;;;;5027189;28;20465;-71
2023/10/26 05:41:23;;;;;;;13.00;12.60;;;8.60;99.90;;;;;;5025305;27;20904;-70
2023/10/26 05:43:50;;;;;;;12.53;12.23;;;8.60;99.90;;;;;;5027630;27;20461;-68
2023/10/26 05:46:17;;;;;;;12.10;11.80;;;8.50;99.90;;;;;;5029384;28;20456;-71
2023/10/26 05:48:44;;;;;;;12.33;12.03;;;8.50;99.90;;;;;;5026496;27;20843;-71
2023/10/26 05:51:11;;;;;;;12.13;11.83;;;8.50;99.90;;;;;;5017160;27;20466;-70
2023/10/26 05:53:38;;;;;;;12.17;11.87;;;8.50;99.90;;;;;;5026329;27;20497;-70
2023/10/26 05:56:05;;;;;;;12.30;12.00;;;8.40;99.90;;;;;;5027183;28;20465;-72
2023/10/26 05:58:34;;;;;;;12.37;12.07;;;8.30;99.90;;;;;;5028084;27;20468;-69
2023/10/26 06:01:01;;;;;;;12.67;12.37;;;8.10;99.90;;;;;;5019409;27;20465;-70
2023/10/26 06:03:28;;;;;;;12.40;12.10;;;8.00;99.90;;;;;;5017474;27;20884;-71
2023/10/26 06:06:00;;;;;;;14.67;14.23;;;7.80;99.90;;;;;;5016931;27;20470;-69
2023/10/26 06:08:26;;;;;;;14.93;14.43;;;7.80;99.90;;;;;;5022868;27;20543;-71
2023/10/26 06:10:53;;;;;;;14.13;13.73;;;7.70;99.90;;;;;;5028749;27;20461;-71
2023/10/26 06:13:20;;;;;;;13.57;13.17;;;7.70;99.90;;;;;;5026792;27;21046;-69
2023/10/26 06:15:48;;;;;;;14.03;13.63;;;7.60;99.90;;;;;;5020605;27;20462;-70
2023/10/26 06:18:15;;;;;;;14.80;14.30;;;7.40;99.90;;;;;;5036723;27;20470;-72
2023/10/26 06:20:42;;;;;;;14.90;14.40;;;7.30;99.90;;;;;;5059087;27;20846;-69
2023/10/26 06:23:11;;;;;;;15.10;14.60;;;7.10;99.90;;;;;;5037197;27;20545;-69
2023/10/26 06:25:39;;;;;;;15.60;15.10;;;7.00;99.90;;;;;;5062377;27;20494;-71
2023/10/26 06:28:06;;;;;;;15.63;15.13;;;7.00;99.90;;;;;;5066732;27;20550;-71
2023/10/26 06:30:34;;;;;;;16.23;15.63;;;6.90;99.90;;;;;;5056774;27;20465;-71
2023/10/26 06:33:02;;;;;;;15.10;14.60;;;7.00;99.90;;;;;;5050013;27;20480;-71
2023/10/26 06:35:28;;;;;;;15.87;15.37;;;6.90;99.90;;;;;;5035496;27;20545;-69
2023/10/26 06:37:55;;;;;;;16.03;15.53;;;6.90;99.90;;;;;;5024368;27;20972;-70
2023/10/26 06:40:22;;;;;;;16.13;15.63;;;6.90;99.90;;;;;;5023640;27;21044;-69
2023/10/26 06:42:49;;;;;;;16.70;16.10;;;6.90;99.90;;;;;;5020582;27;21020;-71
2023/10/26 06:45:16;;;;;;;16.50;15.90;;;6.80;99.90;;;;;;5014215;27;20477;-70
2023/10/26 06:47:43;;;;;;;15.80;15.30;;;6.80;99.90;;;;;;5011010;27;20473;-71
2023/10/26 06:50:11;;;;;;;17.13;16.53;;;6.80;99.90;;;;;;5012217;27;20506;-70
2023/10/26 06:52:38;;;;;;;16.67;16.07;;;6.80;99.90;;;;;;5012953;27;20496;-70
2023/10/26 06:55:06;;;;;;;15.77;15.27;;;6.90;99.90;;;;;;5015052;27;20480;-70
2023/10/26 06:57:35;;;;;;;15.87;15.37;;;6.90;99.90;;;;;;5015015;27;20466;-69
2023/10/26 07:00:02;;;;;;;15.97;15.47;;;6.80;99.90;;;;;;5011199;27;20470;-72
2023/10/26 07:02:31;;;;;;;16.80;16.20;;;6.80;99.90;;;;;;5017822;27;20971;-71
2023/10/26 07:04:59;;;;;;;15.83;15.33;;;6.90;99.90;;;;;;5010251;27;20547;-72
2023/10/26 07:07:28;;;;;;;16.13;15.53;;;7.00;99.90;;;;;;5013824;27;20480;-72
2023/10/26 07:09:55;;;;;;;16.40;15.80;;;7.00;99.90;;;;;;5014547;27;20462;-72
2023/10/26 07:12:22;;;;;;;16.30;15.70;;;7.00;99.90;;;;;;5009791;27;20462;-70
2023/10/26 07:14:53;;;;;;;16.57;15.97;;;7.10;99.90;;;;;;5014643;28;20521;-70
2023/10/26 07:17:20;;;;;;;16.50;15.90;;;7.10;99.90;;;;;;5011827;27;20527;-70
2023/10/26 07:19:47;;;;;;;16.67;16.07;;;7.20;99.90;;;;;;5011533;27;21037;-70
2023/10/26 07:22:13;;;;;;;16.90;16.30;;;7.30;99.90;;;;;;5014067;27;20518;-68
2023/10/26 07:24:42;;;;;;;16.40;15.80;;;7.30;99.90;;;;;;5011297;27;20522;-72
2023/10/26 07:27:09;;;;;;;16.47;15.87;;;7.30;99.90;;;;;;5011463;28;21942;-72
2023/10/26 07:29:36;;;;;;;17.70;17.00;;;7.40;99.90;;;;;;5006915;27;20467;-69
2023/10/26 07:32:02;;;;;;;16.63;16.03;;;7.60;99.90;;;;;;5012097;27;20545;-71
2023/10/26 07:34:30;;;;;;;16.70;16.10;;;7.70;99.90;;;;;;5013908;28;20592;-72
2023/10/26 07:36:57;;;;;;;17.00;16.40;;;7.90;99.90;;;;;;5009077;27;20543;-72
2023/10/26 07:39:24;;;;;;;16.47;15.87;;;8.10;99.90;;;;;;5013052;28;20458;-70
2023/10/26 07:41:53;;;;;;;17.07;16.47;;;8.30;99.90;;;;;;5013229;28;20658;-72
2023/10/26 07:44:20;;;;;;;16.10;15.60;;;8.40;99.90;;;;;;5011165;27;20498;-71
2023/10/26 07:46:46;;;;;;;16.77;16.17;;;8.60;99.90;;;;;;5008820;27;21325;-71
2023/10/26 07:49:13;;;;;;;15.60;15.10;;;8.60;99.90;;;;;;5010920;28;20474;-72
2023/10/26 07:51:40;;;;;;;14.83;14.33;;;8.70;99.90;;;;;;5013797;27;20465;-72
2023/10/26 07:54:07;;;;;;;14.10;13.70;;;8.90;99.90;;;;;;5014430;28;20821;-70
2023/10/26 07:56:34;;;;;;;13.80;13.40;;;8.90;99.90;;;;;;5013701;28;20465;-72
2023/10/26 07:59:03;;;;;;;13.90;13.50;;;9.00;99.90;;;;;;5011771;27;20546;-71
2023/10/26 08:01:30;;;;;;;13.67;13.27;;;9.00;99.90;;;;;;5010353;28;20483;-71
2023/10/26 08:03:57;;;;;;;13.50;13.10;;;9.10;99.90;;;;;;5010060;28;20535;-71
2023/10/26 08:06:24;;;;;;;13.07;12.67;;;9.20;99.90;;;;;;5029284;28;21010;-71
2023/10/26 08:08:51;;;;;;;13.33;12.93;;;9.30;99.90;;;;;;5030882;28;20475;-70
2023/10/26 08:11:18;;;;;;;13.03;12.63;;;9.40;99.90;;;;;;5031193;28;20548;-70
2023/10/26 08:13:45;;;;;;;11.80;11.50;;;9.50;99.90;;;;;;5030996;28;20589;-71
2023/10/26 08:16:14;;;;;;;12.07;11.77;;;9.50;99.90;;;;;;5026243;28;20462;-72
2023/10/26 08:18:42;;;;;;;11.93;11.63;;;9.60;99.90;;;;;;5039074;28;20953;-71
2023/10/26 08:21:08;;;;;;;12.70;12.37;;;9.60;99.90;;;;;;5022777;28;20471;-68
2023/10/26 08:23:35;;;;;;;13.20;12.80;;;9.70;99.90;;;;;;5014258;28;20470;-69
2023/10/26 08:26:10;;;;;;;12.60;12.30;;;9.70;99.90;;;;;;5014468;28;20469;-68
2023/10/26 08:28:36;;;;;;;11.77;11.47;;;9.80;99.90;;;;;;5011581;27;20461;-69
2023/10/26 08:31:04;;;;;;;11.33;11.03;;;9.90;99.90;;;;;;5016032;27;20489;-70
2023/10/26 08:33:33;;;;;;;11.77;11.47;;;10.10;99.90;;;;;;5011133;28;20493;-69
2023/10/26 08:36:00;;;;;;;11.80;11.50;;;10.30;99.90;;;;;;5012939;27;20470;-70
2023/10/26 08:38:28;;;;;;;11.30;11.00;;;10.50;99.90;;;;;;5013097;28;20464;-68
2023/10/26 08:40:55;;;;;;;11.40;11.10;;;10.60;99.90;;;;;;5014468;27;20506;-69
2023/10/26 08:43:23;;;;;;;12.10;11.80;;;10.60;99.90;;;;;;5013887;27;20477;-69
2023/10/26 08:45:53;;;;;;;12.80;12.40;;;10.70;99.90;;;;;;5011679;28;20486;-71
2023/10/26 08:48:21;;;;;;;11.60;11.30;;;10.90;99.90;;;;;;5012549;27;21046;-71
2023/10/26 08:50:50;;;;;;;12.60;12.30;;;10.90;99.90;;;;;;5008276;27;20822;-71
2023/10/26 08:53:18;;;;;;;13.27;12.87;;;11.10;99.90;;;;;;5016792;27;20486;-71
2023/10/26 08:55:46;;;;;;;12.57;12.27;;;11.20;99.90;;;;;;5017289;27;20866;-72
2023/10/26 08:58:13;;;;;;;12.57;12.27;;;11.20;99.90;;;;;;5015527;27;20476;-71
2023/10/26 09:00:40;;;;;;;13.20;12.80;;;11.20;99.90;;;;;;5007979;27;20465;-70
2023/10/26 09:03:07;;;;;;;13.07;12.67;;;11.20;99.90;;;;;;5012235;27;20478;-71
2023/10/26 09:05:34;;;;;;;12.90;12.50;;;11.10;99.90;;;;;;5015771;27;20465;-71
2023/10/26 09:08:17;;;;;;;12.40;12.10;;;11.10;99.90;;;;;;5012743;27;20461;-70
2023/10/26 09:10:44;;;;;;;12.27;11.97;;;11.20;99.90;;;;;;5020846;27;20560;-70
2023/10/26 09:13:14;;;;;;;12.40;12.10;;;11.10;99.90;;;;;;5011276;27;20474;-71
2023/10/26 09:15:49;;;;;;;12.10;11.80;;;11.20;99.90;;;;;;5009754;27;20512;-70
2023/10/26 09:18:16;;;;;;;13.60;13.20;;;11.20;99.90;;;;;;5015138;27;20509;-70
2023/10/26 09:20:44;;;;;;;13.47;13.07;;;11.20;99.90;;;;;;5018379;27;20543;-69
2023/10/26 09:23:28;;;;;;;13.33;12.93;;;11.20;99.90;;;;;;5015601;28;20591;-71
2023/10/26 09:25:58;;;;;;;13.40;13.00;;;11.20;99.90;;;;;;5015302;27;20482;-69
2023/10/26 09:28:25;;;;;;;12.47;12.17;;;11.30;99.90;;;;;;5018121;27;20457;-70
2023/10/26 09:30:58;;;;;;;11.43;11.13;;;11.40;99.90;;;;;;5011342;27;20561;-71
2023/10/26 09:33:26;;;;;;;12.03;11.73;;;11.40;99.90;;;;;;5010818;28;20580;-70
2023/10/26 09:35:53;;;;;;;12.10;11.80;;;11.50;99.90;;;;;;5015214;27;20916;-72
2023/10/26 09:38:35;;;;;;;12.60;12.27;;;11.40;99.90;;;;;;5014440;27;20483;-70
2023/10/26 09:41:03;;;;;;;12.03;11.73;;;11.50;99.90;;;;;;5015132;27;20519;-71
2023/10/26 09:43:30;;;;;;;12.83;12.43;;;11.50;99.90;;;;;;5015573;27;20667;-70
2023/10/26 09:45:57;;;;;;;12.17;11.87;;;11.70;99.90;;;;;;5011136;27;20777;-69
2023/10/26 09:48:25;;;;;;;11.80;11.50;;;11.80;99.90;;;;;;5012501;27;20461;-70
2023/10/26 09:50:53;;;;;;;12.43;12.13;;;11.90;99.90;;;;;;5015088;27;20478;-72
2023/10/26 09:53:21;;;;;;;12.00;11.70;;;12.10;99.90;;;;;;5015346;27;20512;-69
2023/10/26 09:55:51;;;;;;;11.77;11.47;;;12.20;99.90;;;;;;5013582;27;20473;-70
2023/10/26 09:58:19;;;;;;;11.63;11.33;;;12.20;99.90;;;;;;5009556;27;20467;-72
2023/10/26 10:00:45;;;;;;;11.77;11.47;;;12.20;99.90;;;;;;5011311;27;20712;-69
2023/10/26 10:03:14;;;;;;;12.00;11.70;;;12.40;99.90;;;;;;5010786;27;20559;-69
2023/10/26 10:05:42;;;;;;;11.33;11.03;;;12.60;99.90;;;;;;5018002;27;20467;-70
2023/10/26 10:08:10;;;;;;;11.93;11.63;;;12.70;99.90;;;;;;5014030;27;20470;-69
2023/10/26 10:10:37;;;;;;;11.60;11.30;;;12.80;99.90;;;;;;5021772;27;20871;-71
2023/10/26 10:13:05;;;;;;;12.10;11.80;;;13.10;99.90;;;;;;5009677;27;20949;-69
2023/10/26 10:15:38;;;;;;;12.40;12.10;;;13.20;99.90;;;;;;5016563;27;20492;-69
2023/10/26 10:18:05;;;;;;;13.10;12.70;;;13.50;99.90;;;;;;5009971;27;20573;-71
2023/10/26 10:20:34;;;;;;;12.47;12.17;;;13.70;99.90;;;;;;5014744;27;20469;-71
2023/10/26 10:23:01;;;;;;;11.40;11.10;;;14.50;99.90;;;;;;5014312;28;20492;-71
2023/10/26 10:26:00;;;;;;;11.43;11.13;;;15.00;99.90;;;;;;5015969;27;20516;-70
2023/10/26 10:28:51;;;;;;;12.00;11.70;;;15.80;99.90;;;;;;5010480;28;20833;-71
2023/10/26 10:31:38;;;;;;;12.13;11.80;;;16.00;99.90;;;;;;5016469;27;20978;-71
2023/10/26 10:34:05;;;;;;;14.00;13.50;;;15.90;99.90;;;;;;5012115;28;20580;-72
2023/10/26 10:37:06;;;;;;;14.50;14.00;;;15.80;99.90;;;;;;5015786;27;20580;-71
2023/10/26 10:39:32;;;;;;;14.30;13.80;;;15.90;99.90;;;;;;5013081;28;20466;-70
2023/10/26 10:42:00;;;;;;;15.60;15.00;;;16.00;99.90;;;;;;5013215;27;20778;-71
2023/10/26 10:44:29;;;;;;;15.83;15.23;;;15.80;99.90;;;;;;5013921;28;20497;-71
2023/10/26 10:46:56;;;;;;;15.70;15.10;;;15.40;99.90;;;;;;5011807;28;20465;-69
2023/10/26 10:49:25;;;;;;;16.43;15.73;;;15.10;99.90;;;;;;5003875;28;20475;-69
2023/10/26 10:51:52;;;;;;;16.67;15.97;;;14.90;99.90;;;;;;5008846;27;20851;-71
2023/10/26 10:54:22;;;;;;;16.00;15.30;;;14.90;99.90;;;;;;5015280;27;20551;-70
2023/10/26 10:56:50;;;;;;;16.20;15.50;;;14.90;99.90;;;;;;5015650;27;20472;-70
2023/10/26 10:59:22;;;;;;;15.27;14.67;;;14.70;99.90;;;;;;5012240;27;20561;-71
2023/10/26 11:01:51;;;;;;;15.00;14.40;;;14.60;99.90;;;;;;5012450;28;20461;-71
2023/10/26 11:04:18;;;;;;;14.80;14.20;;;14.50;99.90;;;;;;5009538;27;21044;-70
2023/10/26 11:06:47;;;;;;;15.10;14.50;;;14.60;99.90;;;;;;5012613;28;20492;-71
2023/10/26 11:09:22;;;;;;;14.87;14.27;;;14.80;99.90;;;;;;5019366;27;20465;-70
2023/10/26 11:11:49;;;;;;;14.30;13.80;;;14.90;99.90;;;;;;5016497;27;20859;-71
2023/10/26 11:14:17;;;;;;;14.37;13.87;;;15.00;99.90;;;;;;5014977;27;21004;-70
2023/10/26 11:16:44;;;;;;;14.20;13.70;;;15.00;99.90;;;;;;5011889;27;20460;-70
2023/10/26 11:19:12;;;;;;;14.20;13.70;;;15.00;99.90;;;;;;5013816;27;20572;-71
2023/10/26 11:21:40;;;;;;;14.40;13.90;;;14.80;99.90;;;;;;5010706;27;20472;-71
2023/10/26 11:24:08;;;;;;;14.50;14.00;;;14.80;99.90;;;;;;5012629;28;20533;-69
2023/10/26 11:26:35;;;;;;;15.13;14.53;;;14.70;99.90;;;;;;5013390;28;20495;-70
2023/10/26 11:29:04;;;;;;;14.30;13.80;;;14.80;99.90;;;;;;5012589;27;20461;-70
2023/10/26 11:31:39;;;;;;;14.70;14.20;;;14.80;99.90;;;;;;5015595;27;20478;-71
2023/10/26 11:34:07;;;;;;;14.70;14.20;;;14.70;99.90;;;;;;5014477;28;20502;-71
2023/10/26 11:36:36;;;;;;;14.53;14.03;;;14.80;99.90;;;;;;5011871;27;20560;-70
2023/10/26 11:39:04;;;;;;;14.30;13.80;;;14.90;99.90;;;;;;5009454;27;20482;-71
2023/10/26 11:41:33;;;;;;;14.10;13.60;;;15.00;99.90;;;;;;5014071;28;20587;-70
2023/10/26 11:44:00;;;;;;;14.00;13.50;;;15.20;99.90;;;;;;5014838;27;20482;-71
2023/10/26 11:46:35;;;;;;;14.40;13.90;;;15.30;99.90;;;;;;5012257;28;20461;-70
2023/10/26 11:49:04;;;;;;;14.20;13.70;;;15.40;99.90;;;;;;5010380;28;20464;-71
2023/10/26 11:51:32;;;;;;;14.10;13.60;;;15.50;99.90;;;;;;5007512;27;20466;-70
2023/10/26 11:54:09;;;;;;;14.37;13.87;;;15.50;99.90;;;;;;5012154;28;20462;-71
2023/10/26 11:56:37;;;;;;;14.10;13.60;;;15.60;99.90;;;;;;5013102;27;20468;-72
2023/10/26 11:59:04;;;;;;;14.00;13.50;;;15.80;99.90;;;;;;5012829;28;20474;-69
2023/10/26 12:01:31;;;;;;;14.20;13.70;;;15.90;99.90;;;;;;5010243;28;20561;-69
2023/10/26 12:03:57;;;;;;;14.50;14.00;;;15.80;99.90;;;;;;5014628;28;21043;-69
2023/10/26 12:06:24;;;;;;;13.97;13.47;;;15.60;99.90;;;;;;5013981;27;20460;-71
2023/10/26 12:08:51;;;;;;;14.20;13.70;;;15.60;99.90;;;;;;5012522;28;20895;-71
2023/10/26 12:11:20;;;;;;;14.10;13.60;;;15.50;99.90;;;;;;5006772;28;20481;-71
2023/10/26 12:13:46;;;;;;;14.03;13.53;;;15.50;99.90;;;;;;5010316;28;20489;-71
2023/10/26 12:16:13;;;;;;;14.20;13.70;;;15.60;99.90;;;;;;5009835;28;20491;-72
2023/10/26 12:18:41;;;;;;;14.40;13.90;;;15.70;99.90;;;;;;5008480;28;20481;-70
2023/10/26 12:21:08;;;;;;;14.10;13.60;;;15.90;99.90;;;;;;5013372;28;20887;-72
2023/10/26 12:23:35;;;;;;;13.80;13.30;;;16.10;99.90;;;;;;5011429;28;20493;-72
2023/10/26 12:26:02;;;;;;;14.17;13.67;;;16.30;99.90;;;;;;5003300;28;20475;-71
2023/10/26 12:28:30;;;;;;;14.10;13.60;;;16.60;99.90;;;;;;5011340;28;20684;-71
2023/10/26 12:30:57;;;;;;;14.40;13.90;;;16.90;99.90;;;;;;5013022;28;20569;-70
2023/10/26 12:33:24;;;;;;;14.17;13.67;;;17.00;99.90;;;;;;5012847;28;20469;-70
2023/10/26 12:35:51;;;;;;;14.60;14.10;;;17.00;99.90;;;;;;5014269;28;20506;-70
2023/10/26 12:38:19;;;;;;;14.57;14.07;;;16.80;99.90;;;;;;5009756;28;21457;-71
2023/10/26 12:40:47;;;;;;;14.60;14.10;;;16.80;99.90;;;;;;5004647;28;20600;-71